Time;durP1;ratioP1;P1;durP2;ratioP2;P2;SDS_P1;SDS_P2;PMS_P1;PMS_P2;Temp;Humidity;BMP_temperature;BMP_pressure;BME280_temperature;BME280_humidity;BME280_pressure;Samples;Min_cycle;Max_cycle;Signal;HPM_P1;HPM_P2
2022/01/10 00:00:18;;;;;;;;;33.75;25.75;;;;;7.74;73.89;100779.81;5047591;28;46651;-66
2022/01/10 00:02:46;;;;;;;;;27.75;25.00;;;;;7.77;73.75;100787.50;5046295;28;45393;-66
2022/01/10 00:05:12;;;;;;;;;27.50;26.00;;;;;7.81;73.88;100789.03;5040548;28;45538;-61
2022/01/10 00:07:38;;;;;;;;;33.75;26.50;;;;;7.86;74.20;100772.25;5054732;28;45458;-62
2022/01/10 00:10:04;;;;;;;;;26.25;22.50;;;;;7.86;73.66;100783.59;5060318;28;45404;-63
2022/01/10 00:12:29;;;;;;;;;20.75;20.25;;;;;7.85;73.78;100787.16;5014180;28;45408;-65
2022/01/10 00:14:55;;;;;;;;;22.50;21.00;;;;;7.88;73.72;100794.00;5040145;28;45388;-66
2022/01/10 00:17:21;;;;;;;;;24.00;22.25;;;;;7.89;73.57;100801.81;5040167;28;45775;-64
2022/01/10 00:19:46;;;;;;;;;25.75;23.75;;;;;7.92;73.92;100800.81;5040044;28;45467;-63
2022/01/10 00:22:12;;;;;;;;;26.75;22.00;;;;;7.94;73.65;100807.69;5040287;28;45301;-66
2022/01/10 00:24:38;;;;;;;;;20.25;20.00;;;;;7.95;73.41;100817.25;5022591;28;45344;-65
2022/01/10 00:27:04;;;;;;;;;21.00;16.00;;;;;7.95;73.60;100822.50;5022167;28;47570;-66
2022/01/10 00:29:30;;;;;;;;;25.75;23.00;;;;;7.95;73.59;100824.28;5040256;28;45316;-64
2022/01/10 00:31:57;;;;;;;;;30.75;25.75;;;;;7.95;73.82;100827.75;5035481;28;45296;-68
2022/01/10 00:34:26;;;;;;;;;32.00;24.50;;;;;7.95;73.60;100824.28;5025723;28;45396;-66
2022/01/10 00:36:52;;;;;;;;;36.00;28.25;;;;;7.94;73.79;100831.31;5033884;28;45992;-64
2022/01/10 00:39:19;;;;;;;;;36.75;28.75;;;;;7.95;73.89;100830.38;5039865;28;45309;-63
2022/01/10 00:41:45;;;;;;;;;31.50;27.75;;;;;7.94;73.51;100836.53;5030860;28;45463;-64
2022/01/10 00:44:11;;;;;;;;;31.25;26.00;;;;;7.96;74.00;100831.22;5039829;28;45209;-64
2022/01/10 00:46:37;;;;;;;;;29.00;25.75;;;;;7.97;74.02;100851.28;5037198;28;46178;-70
2022/01/10 00:49:03;;;;;;;;;43.25;32.00;;;;;7.98;73.77;100847.72;5020267;28;45356;-62
2022/01/10 00:51:28;;;;;;;;;37.75;32.50;;;;;7.98;73.90;100840.75;5033264;28;45431;-66
2022/01/10 00:53:54;;;;;;;;;29.75;24.25;;;;;7.99;73.76;100841.59;5039308;28;45642;-63
2022/01/10 00:56:20;;;;;;;;;36.25;31.75;;;;;7.97;73.78;100836.38;5040608;28;45481;-64
2022/01/10 00:58:46;;;;;;;;;40.00;33.50;;;;;7.97;73.92;100846.88;5037488;28;45325;-66
2022/01/10 01:01:11;;;;;;;;;34.25;31.75;;;;;7.98;74.18;100845.09;5023425;28;45379;-66
2022/01/10 01:03:37;;;;;;;;;39.75;35.00;;;;;7.94;73.67;100844.41;5042410;28;45237;-61
2022/01/10 01:06:03;;;;;;;;;39.75;32.50;;;;;7.91;74.00;100852.44;5042955;28;45342;-66
2022/01/10 01:08:31;;;;;;;;;36.00;32.50;;;;;7.90;73.89;100856.00;5043018;28;45256;-63
2022/01/10 01:13:28;;;;;;;;;43.25;39.75;;;;;7.86;73.88;100866.69;5043022;28;45293;-64
2022/01/10 01:16:12;;;;;;;;;43.00;38.00;;;;;7.85;73.93;100871.06;5042587;28;45434;-68
2022/01/10 01:24:02;;;;;;;;;51.25;41.00;;;;;7.82;73.79;100894.81;5042799;28;45472;-66
2022/01/10 01:26:30;;;;;;;;;46.00;40.50;;;;;7.83;73.84;100889.50;5043034;28;45932;-67
2022/01/10 01:28:56;;;;;;;;;54.25;43.00;;;;;7.86;74.15;100899.00;5013911;28;45496;-63
2022/01/10 01:31:22;;;;;;;;;58.25;44.75;;;;;7.86;73.72;100904.25;5023086;28;45387;-65
2022/01/10 01:33:47;;;;;;;;;54.50;43.00;;;;;7.83;73.71;100909.63;5023276;28;45357;-64
2022/01/10 01:36:16;;;;;;;;;56.25;43.00;;;;;7.82;73.38;100921.06;5022797;28;46035;-67
2022/01/10 01:38:42;;;;;;;;;56.50;45.25;;;;;7.78;73.44;100925.56;5025683;28;45392;-67
2022/01/10 01:43:53;;;;;;;;;56.00;42.75;;;;;7.74;73.46;100936.25;5023392;28;45301;-68
2022/01/10 01:46:20;;;;;;;;;47.75;41.50;;;;;7.75;73.87;100940.59;5024508;28;46263;-67
2022/01/10 01:48:47;;;;;;;;;58.00;47.00;;;;;7.70;73.68;100937.31;5021244;28;45354;-67
2022/01/10 01:51:12;;;;;;;;;58.75;41.75;;;;;7.65;73.70;100939.28;5025554;28;45479;-68
2022/01/10 01:53:38;;;;;;;;;44.25;40.25;;;;;7.63;73.95;100944.59;5023378;28;45422;-67
2022/01/10 01:56:10;;;;;;;;;61.25;46.25;;;;;7.60;73.89;100946.50;5037123;28;46162;-67
2022/01/10 01:58:37;;;;;;;;;55.75;42.75;;;;;7.57;73.99;100953.56;5042638;28;45478;-67
2022/01/10 02:01:07;;;;;;;;;54.75;41.00;;;;;7.56;73.89;100951.03;5042401;28;45447;-68
2022/01/10 02:03:33;;;;;;;;;56.25;41.75;;;;;7.53;74.16;100954.63;5042632;28;45426;-68
2022/01/10 02:06:01;;;;;;;;;55.50;44.25;;;;;7.50;74.12;100961.75;5042182;28;45346;-68
2022/01/10 02:08:27;;;;;;;;;52.00;42.25;;;;;7.47;74.02;100951.41;5041320;28;45316;-68
2022/01/10 02:10:53;;;;;;;;;49.75;41.75;;;;;7.44;74.21;100964.66;5042294;28;45538;-68
2022/01/10 02:13:18;;;;;;;;;56.50;45.50;;;;;7.41;74.10;100962.16;5042528;28;45690;-68
2022/01/10 02:16:05;;;;;;;;;54.75;43.50;;;;;7.41;74.49;100968.25;5042020;28;45326;-68
2022/01/10 02:18:31;;;;;;;;;60.50;45.00;;;;;7.40;74.25;100965.69;5042261;28;45369;-68
2022/01/10 02:21:00;;;;;;;;;58.25;47.00;;;;;7.39;74.43;100962.22;5042133;28;45297;-68
2022/01/10 02:23:26;;;;;;;;;46.25;42.00;;;;;7.36;74.61;100965.00;5042540;28;45497;-68
2022/01/10 02:25:51;;;;;;;;;33.25;26.75;;;;;7.33;74.56;100965.09;5042142;28;46220;-68
2022/01/10 02:28:17;;;;;;;;;55.75;45.00;;;;;7.30;74.26;100974.88;5042069;28;45367;-68
2022/01/10 02:30:42;;;;;;;;;62.75;51.00;;;;;7.27;74.42;100974.09;5041878;28;45217;-68
2022/01/10 02:33:08;;;;;;;;;55.00;42.50;;;;;7.26;74.48;100963.66;5032681;28;45218;-68
2022/01/10 02:35:44;;;;;;;;;63.00;48.00;;;;;7.22;74.48;100965.56;5028265;28;46098;-68
2022/01/10 02:38:10;;;;;;;;;56.50;42.25;;;;;7.20;74.38;100971.78;5041822;28;45245;-68
2022/01/10 02:40:35;;;;;;;;;60.75;45.75;;;;;7.16;74.67;100970.19;5042516;28;45221;-68
2022/01/10 02:43:06;;;;;;;;;65.50;51.50;;;;;7.15;74.54;100971.13;5028672;28;45331;-68
2022/01/10 02:45:32;;;;;;;;;64.00;50.75;;;;;7.14;74.73;100978.13;5035011;28;45270;-68
2022/01/10 02:47:58;;;;;;;;;55.50;42.75;;;;;7.09;74.57;100973.97;5023267;28;45577;-68
2022/01/10 02:50:23;;;;;;;;;62.00;51.25;;;;;7.02;74.25;100981.22;5041837;28;45539;-68
2022/01/10 02:52:49;;;;;;;;;65.50;48.25;;;;;6.96;74.51;100987.59;5041859;28;45202;-68
2022/01/10 02:55:15;;;;;;;;;65.75;49.50;;;;;6.92;74.74;100993.84;5041691;28;45305;-68
2022/01/10 02:57:41;;;;;;;;;61.00;50.67;;;;;6.84;74.43;101001.16;5041591;28;45239;-68
2022/01/10 03:00:20;;;;;;;;;62.75;47.50;;;;;6.80;74.62;101009.22;5041588;28;45355;-68
2022/01/10 03:02:50;;;;;;;;;55.25;45.25;;;;;6.78;75.02;101011.03;5041651;28;45488;-68
2022/01/10 03:05:17;;;;;;;;;60.25;50.25;;;;;6.79;75.05;101020.56;5041265;28;46629;-68
2022/01/10 03:07:43;;;;;;;;;61.00;51.00;;;;;6.79;75.06;101015.34;5041409;28;45350;-68
2022/01/10 03:10:09;;;;;;;;;68.75;52.25;;;;;6.78;75.14;101018.88;5041794;28;45406;-68
2022/01/10 03:12:35;;;;;;;;;65.33;52.00;;;;;6.77;74.74;101019.78;5041578;28;45408;-68
2022/01/10 03:15:02;;;;;;;;;69.00;52.00;;;;;6.75;74.71;101026.84;5041158;28;46347;-68
2022/01/10 03:17:28;;;;;;;;;73.33;54.67;;;;;6.74;74.68;101023.41;5041339;28;45336;-68
2022/01/10 03:19:54;;;;;;;;;70.67;55.00;;;;;6.72;74.84;101030.47;5040835;28;45281;-68
2022/01/10 03:22:20;;;;;;;;;64.33;53.67;;;;;6.68;74.85;101032.31;5041335;28;45454;-67
2022/01/10 03:24:46;;;;;;;;;64.67;52.33;;;;;6.66;75.16;101038.53;5041104;28;45505;-67
2022/01/10 03:27:11;;;;;;;;;66.00;54.00;;;;;6.65;74.95;101039.47;5041251;28;45264;-67
2022/01/10 03:29:37;;;;;;;;;72.00;56.00;;;;;6.63;75.01;101041.25;5041139;28;45217;-68
2022/01/10 03:32:05;;;;;;;;;75.00;52.67;;;;;6.61;74.63;101051.78;5040078;28;45324;-68
2022/01/10 03:34:31;;;;;;;;;71.33;55.00;;;;;6.59;74.70;101043.16;5021762;28;45462;-68
2022/01/10 03:36:56;;;;;;;;;71.67;55.00;;;;;6.59;74.75;101045.78;5038218;28;45803;-69
2022/01/10 03:39:23;;;;;;;;;67.33;56.00;;;;;6.57;74.87;101055.44;5041207;28;45443;-69
2022/01/10 03:41:49;;;;;;;;;71.00;57.00;;;;;6.52;74.57;101054.75;5040916;28;45266;-68
2022/01/10 03:44:15;;;;;;;;;74.00;56.00;;;;;6.49;75.25;101065.34;5041060;28;45368;-69
2022/01/10 03:46:41;;;;;;;;;76.67;57.33;;;;;6.47;74.90;101059.31;5024360;28;45227;-68
2022/01/10 03:49:07;;;;;;;;;69.00;56.33;;;;;6.43;74.61;101061.19;5031965;28;45238;-68
2022/01/10 03:51:33;;;;;;;;;70.00;50.33;;;;;6.37;74.80;101063.19;5040756;28;45569;-69
2022/01/10 03:53:58;;;;;;;;;75.33;57.33;;;;;6.32;74.20;101068.59;5040894;28;45420;-68
2022/01/10 03:56:27;;;;;;;;;71.67;53.33;;;;;6.28;75.28;101064.38;5040708;28;45432;-68
2022/01/10 03:58:52;;;;;;;;;72.33;56.00;;;;;6.28;75.35;101072.22;5040826;28;45341;-69
2022/01/10 04:01:18;;;;;;;;;72.00;55.00;;;;;6.28;75.19;101085.28;5040515;28;45630;-68
2022/01/10 04:03:43;;;;;;;;;73.00;56.00;;;;;6.26;74.55;101078.41;5040591;28;45370;-68
2022/01/10 04:06:09;;;;;;;;;73.67;57.00;;;;;6.24;74.81;101086.31;5040408;28;45431;-68
2022/01/10 04:08:36;;;;;;;;;73.50;56.50;;;;;6.18;74.62;101088.31;5040562;28;45454;-68
2022/01/10 04:11:02;;;;;;;;;74.33;55.00;;;;;6.14;75.37;101091.00;5040660;28;45563;-68
2022/01/10 04:13:28;;;;;;;;;81.00;59.00;;;;;6.13;74.44;101093.69;5040382;28;45476;-68
2022/01/10 04:15:53;;;;;;;;;65.00;53.00;;;;;6.09;75.27;101095.56;5040377;28;45459;-68
2022/01/10 04:18:19;;;;;;;;;74.33;57.33;;;;;6.05;74.95;101101.78;5040644;28;45364;-68
2022/01/10 04:20:45;;;;;;;;;76.67;57.67;;;;;5.99;74.78;101107.22;5014575;28;45321;-68
2022/01/10 04:23:13;;;;;;;;;72.67;55.33;;;;;5.95;74.53;101113.50;5011726;28;45400;-68
2022/01/10 04:25:38;;;;;;;;;81.00;57.00;;;;;5.91;75.56;101108.41;5020407;28;45300;-68
2022/01/10 04:28:04;;;;;;;;;72.67;55.00;;;;;5.88;74.90;101120.66;5020198;28;45296;-69
2022/01/10 04:30:30;;;;;;;;;68.67;54.67;;;;;5.88;75.39;101118.03;5020312;28;45322;-68
2022/01/10 04:33:00;;;;;;;;;78.67;60.33;;;;;5.91;75.19;101105.78;5023372;28;46003;-68
2022/01/10 04:35:27;;;;;;;;;64.67;54.00;;;;;5.91;75.39;101124.94;5023729;28;45541;-68
2022/01/10 04:37:53;;;;;;;;;74.00;58.00;;;;;5.90;75.79;101133.66;5023920;28;45263;-68
2022/01/10 04:40:19;;;;;;;;;79.33;58.00;;;;;5.89;75.77;101140.66;5023991;28;45423;-68
2022/01/10 04:42:45;;;;;;;;;76.33;57.67;;;;;5.87;74.52;101146.84;5023769;28;46467;-68
2022/01/10 04:45:11;;;;;;;;;71.33;57.00;;;;;5.80;75.51;101151.41;5023388;28;45307;-68
2022/01/10 04:47:37;;;;;;;;;82.67;60.67;;;;;5.76;75.35;101162.00;5024219;28;45303;-68
2022/01/10 04:50:25;;;;;;;;;73.00;57.00;;;;;5.76;75.14;101157.63;5024189;28;45474;-68
2022/01/10 04:52:51;;;;;;;;;74.67;57.67;;;;;5.76;75.70;101165.47;5023749;28;45889;-68
2022/01/10 04:55:18;;;;;;;;;79.00;58.33;;;;;5.77;75.45;101168.97;5023860;28;45343;-68
2022/01/10 04:57:44;;;;;;;;;71.33;56.67;;;;;5.74;76.07;101164.69;5023808;28;45309;-68
2022/01/10 05:00:13;;;;;;;;;73.00;56.00;;;;;5.69;75.62;101176.19;5023759;28;45534;-68
2022/01/10 05:02:43;;;;;;;;;76.67;58.33;;;;;5.65;75.68;101174.59;5023451;28;45977;-68
2022/01/10 05:05:09;;;;;;;;;73.67;57.00;;;;;5.57;75.19;101170.44;5023583;28;45405;-68
2022/01/10 05:07:34;;;;;;;;;71.00;54.00;;;;;5.54;75.35;101186.25;5023658;28;45196;-68
2022/01/10 05:10:00;;;;;;;;;76.00;59.00;;;;;5.53;74.80;101186.25;5023601;28;45295;-68
2022/01/10 05:12:27;;;;;;;;;71.67;56.67;;;;;5.50;75.29;101189.84;5023336;28;45541;-68
2022/01/10 05:14:53;;;;;;;;;71.67;57.00;;;;;5.50;75.14;101187.22;5023195;28;45399;-68
2022/01/10 05:17:21;;;;;;;;;68.33;55.67;;;;;5.49;75.82;101188.13;5023449;28;45315;-68
2022/01/10 05:19:46;;;;;;;;;74.33;58.33;;;;;5.49;75.74;101197.72;5024956;28;45431;-69
2022/01/10 05:22:12;;;;;;;;;71.67;56.00;;;;;5.46;74.88;101203.91;5043061;28;46289;-68
2022/01/10 05:24:37;;;;;;;;;70.67;52.33;;;;;5.45;75.12;101203.94;5043169;28;45231;-68
2022/01/10 05:27:04;;;;;;;;;65.33;53.67;;;;;5.41;75.35;101212.78;5043085;28;45372;-68
2022/01/10 05:29:29;;;;;;;;;69.67;51.33;;;;;5.38;74.93;101218.13;5043059;28;45164;-68
2022/01/10 05:31:54;;;;;;;;;68.67;52.67;;;;;5.39;75.36;101219.81;5042615;28;45259;-68
2022/01/10 05:34:20;;;;;;;;;67.00;51.67;;;;;5.39;74.94;101225.91;5023507;28;45391;-67
2022/01/10 05:36:45;;;;;;;;;75.00;57.00;;;;;5.37;74.75;101217.22;5039237;28;45217;-68
2022/01/10 05:39:11;;;;;;;;;71.67;53.33;;;;;5.38;74.60;101226.81;5042987;28;45234;-68
2022/01/10 05:41:36;;;;;;;;;66.33;49.67;;;;;5.38;75.20;101231.19;5042765;28;45330;-68
2022/01/10 05:44:03;;;;;;;;;71.33;55.33;;;;;5.34;75.26;101230.41;5042655;28;45228;-68
2022/01/10 05:46:30;;;;;;;;;69.00;55.33;;;;;5.28;74.38;101231.41;5027970;28;45408;-68
2022/01/10 05:49:00;;;;;;;;;72.67;55.33;;;;;5.26;75.14;101240.22;5032457;28;45479;-69
2022/01/10 05:51:29;;;;;;;;;82.33;53.33;;;;;5.26;74.78;101251.50;5042447;28;45973;-68
2022/01/10 05:53:55;;;;;;;;;69.67;54.00;;;;;5.26;74.25;101251.50;5042642;28;45371;-67
2022/01/10 05:56:21;;;;;;;;;69.00;54.67;;;;;5.26;74.94;101254.13;5042628;28;45392;-68
2022/01/10 05:58:46;;;;;;;;;73.33;56.33;;;;;5.26;74.84;101264.56;5042722;28;45454;-68
2022/01/10 06:01:12;;;;;;;;;69.00;52.33;;;;;5.24;73.95;101276.84;5042121;28;46050;-68
2022/01/10 06:03:37;;;;;;;;;66.67;53.67;;;;;5.23;74.97;101277.72;5042575;28;45256;-68
2022/01/10 06:06:03;;;;;;;;;72.00;54.00;;;;;5.20;74.53;101275.19;5042591;28;45545;-68
2022/01/10 06:08:28;;;;;;;;;55.00;43.67;;;;;5.16;73.96;101283.19;5042844;28;45216;-68
2022/01/10 06:10:54;;;;;;;;;74.00;54.67;;;;;5.11;73.91;101287.66;5042123;28;46409;-68
2022/01/10 06:13:19;;;;;;;;;71.33;54.67;;;;;5.04;74.42;101295.66;5024821;28;45210;-68
2022/01/10 06:15:45;;;;;;;;;71.67;53.67;;;;;4.98;74.00;101305.44;5042333;28;45227;-68
2022/01/10 06:18:11;;;;;;;;;67.33;52.67;;;;;4.93;74.47;101321.22;5042657;28;45271;-68
2022/01/10 06:20:36;;;;;;;;;64.00;52.33;;;;;4.90;74.00;101321.31;5041656;28;45331;-68
2022/01/10 06:23:02;;;;;;;;;72.00;52.00;;;;;4.87;73.96;101329.19;5035415;28;45432;-68
2022/01/10 06:25:28;;;;;;;;;69.25;53.75;;;;;4.84;74.31;101333.66;5024159;28;45484;-68
2022/01/10 06:27:54;;;;;;;;;69.75;55.25;;;;;4.79;74.31;101335.50;5042199;28;45338;-67
2022/01/10 06:30:20;;;;;;;;;71.00;54.00;;;;;4.74;73.30;101339.13;5041642;28;45454;-68
2022/01/10 06:32:46;;;;;;;;;64.00;52.00;;;;;4.73;74.71;101339.13;5035685;28;45467;-68
2022/01/10 06:35:12;;;;;;;;;66.00;53.00;;;;;4.71;74.31;101333.94;5025042;28;45328;-67
2022/01/10 06:37:37;;;;;;;;;69.33;52.67;;;;;4.73;74.38;101354.78;5017453;28;45494;-69
2022/01/10 06:40:05;;;;;;;;;70.33;52.00;;;;;4.74;74.17;101356.53;5026925;28;45163;-68
2022/01/10 06:42:31;;;;;;;;;80.00;57.33;;;;;4.76;74.73;101352.13;5021506;28;45428;-68
2022/01/10 06:44:57;;;;;;;;;70.00;51.67;;;;;4.81;75.10;101355.44;5036328;28;45301;-69
2022/01/10 06:47:22;;;;;;;;;73.33;55.00;;;;;4.87;75.07;101368.34;5022233;28;45475;-62
2022/01/10 06:49:48;;;;;;;;;75.33;52.00;;;;;4.92;75.54;101373.47;5038161;28;45574;-62
2022/01/10 06:52:13;;;;;;;;;65.33;53.00;;;;;4.92;75.83;101371.72;5041840;28;45442;-63
2022/01/10 06:54:39;;;;;;;;;68.33;49.00;;;;;4.99;75.03;101385.47;5040863;28;45451;-64
2022/01/10 06:57:05;;;;;;;;;65.33;50.00;;;;;5.08;75.34;101392.19;5041752;28;45502;-62
2022/01/10 06:59:30;;;;;;;;;68.00;50.33;;;;;5.14;75.55;101405.97;5037298;28;45248;-62
2022/01/10 07:01:57;;;;;;;;;66.67;52.00;;;;;5.19;75.20;101414.50;5041224;28;45407;-61
2022/01/10 07:04:23;;;;;;;;;69.67;54.67;;;;;5.18;74.85;101417.16;5041428;28;45399;-62
2022/01/10 07:06:49;;;;;;;;;65.00;53.00;;;;;5.17;75.10;101433.75;5041772;28;45458;-63
2022/01/10 07:09:14;;;;;;;;;73.67;48.67;;;;;5.15;75.28;101435.53;5041191;28;45169;-63
2022/01/10 07:11:40;;;;;;;;;76.00;53.67;;;;;5.14;75.46;101434.69;5041535;28;45197;-63
2022/01/10 07:14:06;;;;;;;;;70.33;54.67;;;;;5.16;75.07;101453.78;5041255;28;45317;-63
2022/01/10 07:16:33;;;;;;;;;69.00;51.00;;;;;5.16;75.41;101458.16;5041356;28;45475;-63
2022/01/10 07:18:59;;;;;;;;;66.67;53.33;;;;;5.18;75.75;101466.78;5040555;28;45547;-63
2022/01/10 07:21:24;;;;;;;;;72.33;53.33;;;;;5.21;75.75;101479.75;5040227;28;45527;-63
2022/01/10 07:23:50;;;;;;;;;67.67;50.33;;;;;5.26;75.21;101480.50;5041153;28;45297;-63
2022/01/10 07:26:16;;;;;;;;;74.00;53.33;;;;;5.29;75.23;101483.03;5041164;28;45258;-63
2022/01/10 07:28:41;;;;;;;;;74.00;52.50;;;;;5.31;75.68;101489.97;5040561;28;45770;-63
2022/01/10 07:31:07;;;;;;;;;64.50;49.00;;;;;5.32;74.92;101496.91;5040767;28;45281;-63
2022/01/10 07:33:34;;;;;;;;;69.75;49.25;;;;;5.31;74.90;101504.78;5028120;28;45187;-63
2022/01/10 07:36:00;;;;;;;;;63.25;51.00;;;;;5.29;75.09;101509.16;5030723;28;45187;-63
2022/01/10 07:38:25;;;;;;;;;66.33;48.33;;;;;5.32;75.23;101520.41;5040854;28;46234;-63
2022/01/10 07:40:51;;;;;;;;;65.00;48.00;;;;;5.36;74.55;101530.75;5041134;28;45412;-63
2022/01/10 07:43:17;;;;;;;;;64.50;50.25;;;;;5.37;73.90;101530.72;5041047;28;45316;-63
2022/01/10 07:45:42;;;;;;;;;58.75;45.75;;;;;5.37;75.22;101540.31;5041097;28;45282;-63
2022/01/10 07:48:08;;;;;;;;;62.75;44.75;;;;;5.39;74.61;101541.16;5040596;28;46321;-63
2022/01/10 07:50:33;;;;;;;;;66.50;45.25;;;;;5.39;75.01;101539.41;5040572;28;45368;-63
2022/01/10 07:52:59;;;;;;;;;57.50;42.75;;;;;5.44;74.53;101547.97;5040858;28;45481;-63
2022/01/10 07:55:24;;;;;;;;;57.25;45.25;;;;;5.47;74.26;101554.88;5040736;28;45316;-63
2022/01/10 07:57:50;;;;;;;;;49.25;38.75;;;;;5.49;74.85;101567.00;5009419;28;45664;-63
2022/01/10 08:00:15;;;;;;;;;44.00;33.50;;;;;5.45;74.34;101585.41;5019275;28;45348;-63
2022/01/10 08:02:41;;;;;;;;;44.25;29.25;;;;;5.38;74.20;101573.41;5017170;28;46519;-63
2022/01/10 08:05:09;;;;;;;;;41.25;32.75;;;;;5.38;74.17;101584.72;5013473;28;45752;-63
2022/01/10 08:07:34;;;;;;;;;37.00;32.50;;;;;5.38;73.78;101595.16;5025757;28;45308;-63
2022/01/10 08:10:02;;;;;;;;;38.50;30.25;;;;;5.38;74.07;101602.16;5011205;28;45449;-64
2022/01/10 08:12:27;;;;;;;;;42.50;29.50;;;;;5.36;73.52;101604.78;5017173;28;46394;-63
2022/01/10 08:14:53;;;;;;;;;33.00;29.00;;;;;5.35;74.22;101604.81;5017645;28;45510;-63
2022/01/10 08:17:18;;;;;;;;;40.75;31.50;;;;;5.37;74.39;101609.09;5020529;28;46225;-63
2022/01/10 08:19:43;;;;;;;;;35.50;29.00;;;;;5.42;74.29;101603.78;5022002;28;45495;-63
2022/01/10 08:22:09;;;;;;;;;56.00;40.25;;;;;5.46;73.38;101601.06;5039757;28;45438;-63
2022/01/10 08:24:34;;;;;;;;;35.75;28.75;;;;;5.51;73.99;101609.63;5040391;28;45578;-63
2022/01/10 08:27:00;;;;;;;;;37.50;33.00;;;;;5.56;73.33;101607.78;5041054;28;46166;-63
2022/01/10 08:29:26;;;;;;;;;30.75;27.25;;;;;5.60;74.04;101617.25;5039592;28;45511;-63
2022/01/10 08:31:52;;;;;;;;;63.00;51.67;;;;;5.65;74.33;101621.50;5040097;28;45446;-63
2022/01/10 08:34:17;;;;;;;;;33.25;29.00;;;;;5.70;74.00;101624.88;5020714;28;45370;-62
2022/01/10 08:36:43;;;;;;;;;26.25;20.50;;;;;5.79;73.76;101632.50;5039318;28;46035;-63
2022/01/10 08:39:09;;;;;;;;;21.50;20.00;;;;;5.84;73.42;101639.31;5039662;28;45263;-63
2022/01/10 08:41:35;;;;;;;;;32.75;26.25;;;;;5.88;73.45;101638.34;5039343;28;45479;-62
2022/01/10 08:44:03;;;;;;;;;33.75;24.25;;;;;5.93;73.28;101648.72;5039720;28;45246;-62
2022/01/10 08:46:29;;;;;;;;;26.25;21.75;;;;;5.99;73.28;101647.69;5036298;28;46533;-62
2022/01/10 08:48:55;;;;;;;;;22.50;21.50;;;;;6.02;72.98;101650.25;5039340;28;45505;-62
2022/01/10 08:51:20;;;;;;;;;30.75;26.75;;;;;6.04;73.00;101644.06;5039131;28;45324;-62
2022/01/10 08:53:46;;;;;;;;;27.00;23.25;;;;;6.08;72.83;101648.34;5039764;28;45329;-63
2022/01/10 08:56:11;;;;;;;;;22.75;19.75;;;;;6.07;72.65;101661.44;5038914;28;45595;-62
2022/01/10 08:58:37;;;;;;;;;38.00;25.75;;;;;6.08;73.39;101673.59;5039418;28;45428;-62
2022/01/10 09:01:05;;;;;;;;;52.00;40.75;;;;;6.05;72.79;101684.16;5038955;28;45499;-63
2022/01/10 09:03:32;;;;;;;;;36.00;27.75;;;;;6.05;73.24;101687.63;5039254;28;45394;-63
2022/01/10 09:05:58;;;;;;;;;47.25;36.75;;;;;6.06;73.11;101686.72;5037867;28;45534;-63
2022/01/10 09:08:29;;;;;;;;;25.50;20.25;;;;;6.09;73.11;101694.50;5039700;28;45817;-63
2022/01/10 09:10:55;;;;;;;;;37.25;32.00;;;;;6.09;73.61;101704.97;5039516;28;45216;-63
2022/01/10 09:13:21;;;;;;;;;34.25;29.00;;;;;6.08;73.63;101698.03;5040203;28;45808;-62
2022/01/10 09:15:46;;;;;;;;;20.00;18.25;;;;;6.12;73.42;101706.66;5039415;28;45981;-63
2022/01/10 09:18:12;;;;;;;;;23.75;19.50;;;;;6.17;73.20;101710.00;5041683;28;45242;-63
2022/01/10 09:20:38;;;;;;;;;29.75;24.00;;;;;6.22;73.15;101704.66;5043150;28;45283;-63
2022/01/10 09:23:04;;;;;;;;;26.00;20.75;;;;;6.29;73.36;101707.06;5043624;28;45513;-62
2022/01/10 09:25:29;;;;;;;;;29.00;27.25;;;;;6.38;72.91;101719.91;5043102;28;45474;-63
2022/01/10 09:27:55;;;;;;;;;42.00;34.50;;;;;6.44;72.46;101717.13;5043047;28;45378;-63
2022/01/10 09:30:22;;;;;;;;;28.00;24.00;;;;;6.51;72.95;101723.06;5042598;28;45327;-63
2022/01/10 09:32:47;;;;;;;;;35.50;25.25;;;;;6.58;72.69;101732.47;5043216;28;46185;-62
2022/01/10 09:35:13;;;;;;;;;35.00;30.00;;;;;6.66;72.08;101738.38;5039549;28;45864;-62
2022/01/10 09:37:39;;;;;;;;;27.75;23.00;;;;;6.75;72.44;101732.03;5042692;28;45344;-63
2022/01/10 09:40:06;;;;;;;;;42.25;25.75;;;;;6.79;71.75;101728.41;5042896;28;45251;-63
2022/01/10 09:42:33;;;;;;;;;44.50;32.00;;;;;6.86;72.03;101736.94;5043138;28;45534;-62
2022/01/10 09:45:00;;;;;;;;;34.25;29.25;;;;;6.86;71.81;101750.91;5042430;28;45386;-62
2022/01/10 09:47:25;;;;;;;;;31.00;23.00;;;;;6.82;71.78;101759.75;5042761;28;45466;-63
2022/01/10 09:49:51;;;;;;;;;28.50;26.25;;;;;6.82;72.30;101751.91;5042606;28;45255;-63
2022/01/10 09:52:17;;;;;;;;;33.25;27.00;;;;;6.85;72.02;101764.03;5043074;28;45498;-63
2022/01/10 09:54:43;;;;;;;;;38.25;25.75;;;;;6.88;72.17;101764.84;5042716;28;45349;-63
2022/01/10 09:57:08;;;;;;;;;32.50;27.75;;;;;6.89;71.97;101769.16;5042791;28;45247;-63
2022/01/10 09:59:34;;;;;;;;;37.75;28.00;;;;;6.88;71.66;101772.69;5042475;28;45320;-63
2022/01/10 10:02:00;;;;;;;;;27.75;22.50;;;;;6.90;71.98;101778.75;5042967;28;45237;-63
2022/01/10 10:04:25;;;;;;;;;28.00;24.75;;;;;6.95;71.92;101776.88;5042423;28;45241;-63
2022/01/10 10:06:52;;;;;;;;;27.00;22.50;;;;;6.99;71.46;101780.25;5042723;28;45529;-63
2022/01/10 10:09:18;;;;;;;;;45.75;40.75;;;;;6.98;71.69;101791.63;5042600;28;45343;-63
2022/01/10 10:11:46;;;;;;;;;44.25;36.25;;;;;7.02;71.99;101795.00;5042853;28;45317;-63
2022/01/10 10:14:17;;;;;;;;;62.50;48.50;;;;;7.04;71.58;101793.22;5024482;28;47738;-63
2022/01/10 10:16:49;;;;;;;;;30.50;24.00;;;;;7.04;71.70;101793.22;5042205;28;45322;-63
2022/01/10 10:19:25;;;;;;;;;36.25;28.00;;;;;7.05;71.73;101795.81;5042418;28;45427;-63
2022/01/10 10:21:52;;;;;;;;;36.25;30.75;;;;;7.09;71.51;101794.78;5042421;28;45497;-63
2022/01/10 10:24:18;;;;;;;;;39.25;29.25;;;;;7.14;71.75;101800.78;5042392;28;45350;-63
2022/01/10 10:26:44;;;;;;;;;36.75;28.75;;;;;7.19;71.64;101804.16;5042156;28;45326;-63
2022/01/10 10:29:13;;;;;;;;;32.00;28.00;;;;;7.24;71.67;101802.22;5041448;28;45178;-63
2022/01/10 10:31:48;;;;;;;;;31.25;23.75;;;;;7.30;71.41;101798.59;5042143;28;45476;-63
2022/01/10 10:34:23;;;;;;;;;30.25;23.75;;;;;7.34;71.38;101804.59;5029679;28;46172;-63
2022/01/10 10:37:01;;;;;;;;;36.25;21.75;;;;;7.35;71.08;101806.34;5031797;28;45324;-63
2022/01/10 10:39:27;;;;;;;;;38.75;33.00;;;;;7.36;71.41;101815.91;5024151;28;45282;-63
2022/01/10 10:41:59;;;;;;;;;29.50;25.00;;;;;7.41;71.34;101809.59;5042381;28;45420;-63
2022/01/10 10:44:25;;;;;;;;;38.00;30.75;;;;;7.43;71.13;101817.44;5041739;28;45285;-63
2022/01/10 10:46:51;;;;;;;;;33.25;27.75;;;;;7.45;71.11;101816.50;5023780;28;45368;-63
2022/01/10 10:49:22;;;;;;;;;57.25;42.25;;;;;7.46;70.91;101818.22;5041530;28;45452;-62
2022/01/10 10:51:50;;;;;;;;;39.25;25.25;;;;;7.44;71.22;101833.13;5042040;28;45434;-63
2022/01/10 10:54:17;;;;;;;;;29.25;24.75;;;;;7.42;71.33;101832.28;5041893;28;45321;-63
2022/01/10 10:56:45;;;;;;;;;32.00;25.75;;;;;7.41;71.16;101838.44;5041292;28;45317;-63
2022/01/10 10:59:12;;;;;;;;;30.25;25.00;;;;;7.42;71.55;101839.28;5015513;28;45271;-63
2022/01/10 11:01:39;;;;;;;;;33.75;29.00;;;;;7.44;71.20;101845.38;5023774;28;45349;-62
2022/01/10 11:04:09;;;;;;;;;30.25;23.75;;;;;7.47;71.47;101840.91;5041713;28;46189;-63
2022/01/10 11:06:36;;;;;;;;;33.50;29.50;;;;;7.52;71.40;101849.50;5041467;28;45273;-63
2022/01/10 11:09:09;;;;;;;;;37.00;30.50;;;;;7.55;71.44;101843.28;5041693;28;45347;-62
2022/01/10 11:11:35;;;;;;;;;36.25;30.75;;;;;7.50;71.18;101842.56;5041353;28;45281;-63
2022/01/10 11:14:02;;;;;;;;;38.00;30.50;;;;;7.46;71.19;101839.19;5041511;28;46185;-63
2022/01/10 11:16:28;;;;;;;;;40.50;34.50;;;;;7.43;71.61;101841.91;5041195;28;45325;-63
2022/01/10 11:18:55;;;;;;;;;42.00;27.50;;;;;7.45;71.35;101852.34;5041418;28;45227;-64
2022/01/10 11:21:24;;;;;;;;;42.75;29.50;;;;;7.46;71.41;101847.03;5041387;28;45586;-63
2022/01/10 11:23:52;;;;;;;;;35.25;29.50;;;;;7.49;71.53;101854.81;5041118;28;46455;-63